Time;durP1;ratioP1;P1;durP2;ratioP2;P2;SDS_P1;SDS_P2;PMS_P1;PMS_P2;Temp;Humidity;BMP_temperature;BMP_pressure;BME280_temperature;BME280_humidity;BME280_pressure;Samples;Min_cycle;Max_cycle;Signal;HPM_P1;HPM_P2
2022/08/22 00:02:20;;;;;;;;;;;18.50;76.40;;;;;;5047765;28;19948;-77
2022/08/22 00:05:04;;;;;;;;;;;18.40;76.80;;;;;;5040586;28;20115;-77
2022/08/22 00:07:44;;;;;;;;;;;18.40;77.10;;;;;;5032500;28;19920;-77
2022/08/22 00:10:26;;;;;;;;;;;18.40;76.40;;;;;;5046666;28;19947;-77
2022/08/22 00:12:52;;;;;;;;;;;18.40;75.90;;;;;;5035508;28;19919;-77
2022/08/22 00:15:21;;;;;;;;;;;18.40;76.90;;;;;;5049104;28;20010;-77
2022/08/22 00:18:05;;;;;;;;;;;18.30;76.60;;;;;;5050258;28;19943;-77
2022/08/22 00:20:37;;;;;;;;;;;18.40;77.00;;;;;;5033974;28;19932;-77
2022/08/22 00:23:08;;;;;;;;;;;18.40;77.40;;;;;;5030393;28;20373;-78
2022/08/22 00:25:53;;;;;;;;;;;18.40;77.10;;;;;;5049311;28;19931;-78
2022/08/22 00:28:22;;;;;;;;;;;18.30;77.00;;;;;;5041758;28;19912;-77
2022/08/22 00:30:51;;;;;;;;;;;18.20;77.10;;;;;;5052473;28;19913;-77
2022/08/22 00:33:24;;;;;;;;;;;18.20;76.90;;;;;;5047791;28;20369;-77
2022/08/22 00:35:53;;;;;;;;;;;18.20;76.70;;;;;;5058428;28;20324;-78
2022/08/22 00:38:22;;;;;;;;;;;18.10;77.10;;;;;;5048653;28;19917;-77
2022/08/22 00:40:47;;;;;;;;;;;18.00;77.40;;;;;;5047983;28;19924;-77
2022/08/22 00:43:32;;;;;;;;;;;18.00;77.50;;;;;;5027114;28;19917;-77
2022/08/22 00:46:08;;;;;;;;;;;18.00;78.50;;;;;;5029892;28;19917;-78
2022/08/22 00:48:50;;;;;;;;;;;18.10;78.60;;;;;;5047891;28;19913;-77
2022/08/22 00:51:38;;;;;;;;;;;18.00;79.00;;;;;;5046168;28;19916;-78
2022/08/22 00:54:22;;;;;;;;;;;18.00;78.70;;;;;;5048567;28;20015;-78
2022/08/22 00:57:04;;;;;;;;;;;17.90;78.60;;;;;;5043300;28;19913;-78
2022/08/22 00:59:35;;;;;;;;;;;17.90;78.40;;;;;;5047655;28;20403;-78
2022/08/22 01:02:13;;;;;;;;;;;17.80;78.70;;;;;;5052734;28;19913;-77
2022/08/22 01:04:57;;;;;;;;;;;17.80;79.10;;;;;;5042122;28;19913;-77
2022/08/22 01:07:31;;;;;;;;;;;17.80;79.20;;;;;;5033974;28;19967;-78
2022/08/22 01:09:59;;;;;;;;;;;17.80;78.70;;;;;;5049789;28;19927;-78
2022/08/22 01:12:25;;;;;;;;;;;17.80;78.70;;;;;;5047755;28;19920;-77
2022/08/22 01:14:56;;;;;;;;;;;17.70;78.70;;;;;;5052366;28;19921;-78
2022/08/22 01:17:31;;;;;;;;;;;17.70;78.70;;;;;;5045347;28;20357;-78
2022/08/22 01:20:09;;;;;;;;;;;17.60;79.50;;;;;;5033883;28;19978;-78
2022/08/22 01:22:48;;;;;;;;;;;17.60;79.40;;;;;;5027610;28;19921;-77
2022/08/22 01:25:32;;;;;;;;;;;17.60;80.10;;;;;;5037270;28;19913;-78
2022/08/22 01:27:57;;;;;;;;;;;17.50;80.30;;;;;;5044862;28;20011;-78
2022/08/22 01:30:34;;;;;;;;;;;17.60;80.50;;;;;;5025770;28;20073;-77
2022/08/22 01:33:18;;;;;;;;;;;17.60;80.70;;;;;;5041290;28;20004;-78
2022/08/22 01:35:53;;;;;;;;;;;17.50;80.50;;;;;;5045511;28;19916;-77
2022/08/22 01:38:33;;;;;;;;;;;17.60;80.00;;;;;;5040518;28;19923;-77
2022/08/22 01:41:05;;;;;;;;;;;17.60;80.50;;;;;;5043151;28;19979;-76
2022/08/22 01:43:45;;;;;;;;;;;17.60;80.10;;;;;;5047219;28;20401;-77
2022/08/22 01:46:30;;;;;;;;;;;17.50;80.10;;;;;;5024627;28;19974;-77
2022/08/22 01:49:13;;;;;;;;;;;17.60;80.00;;;;;;5047972;28;19913;-77
2022/08/22 01:51:45;;;;;;;;;;;17.50;80.40;;;;;;5025678;28;19931;-77
2022/08/22 01:54:20;;;;;;;;;;;17.50;80.50;;;;;;5027979;28;19916;-77
2022/08/22 01:56:45;;;;;;;;;;;17.50;80.40;;;;;;5043511;28;19913;-77
2022/08/22 01:59:30;;;;;;;;;;;17.60;80.20;;;;;;5040631;28;19942;-77
2022/08/22 02:02:18;;;;;;;;;;;17.50;79.90;;;;;;5044916;28;19913;-77
2022/08/22 02:04:44;;;;;;;;;;;17.40;80.10;;;;;;5040040;28;19917;-78
2022/08/22 02:07:24;;;;;;;;;;;17.30;80.30;;;;;;5028482;28;19927;-78
2022/08/22 02:10:13;;;;;;;;;;;17.40;80.40;;;;;;5037994;28;20000;-77
2022/08/22 02:12:57;;;;;;;;;;;17.30;80.20;;;;;;5011250;28;19967;-77
2022/08/22 02:15:29;;;;;;;;;;;17.20;80.00;;;;;;5046745;28;19947;-78
2022/08/22 02:18:03;;;;;;;;;;;17.10;80.00;;;;;;5046829;28;19912;-78
2022/08/22 02:20:38;;;;;;;;;;;17.10;80.90;;;;;;5041747;28;20003;-78
2022/08/22 02:23:22;;;;;;;;;;;17.10;81.20;;;;;;5023055;28;19919;-78
2022/08/22 02:25:53;;;;;;;;;;;17.10;81.80;;;;;;5049053;28;19958;-78
2022/08/22 02:28:30;;;;;;;;;;;17.10;82.00;;;;;;5042570;28;19999;-77
2022/08/22 02:31:11;;;;;;;;;;;17.10;81.90;;;;;;5041417;28;19948;-77
2022/08/22 02:33:36;;;;;;;;;;;17.10;81.70;;;;;;5048238;28;19929;-78
2022/08/22 02:36:22;;;;;;;;;;;17.10;81.30;;;;;;5030273;28;19935;-78
2022/08/22 02:38:57;;;;;;;;;;;17.00;80.90;;;;;;5030099;28;19913;-77
2022/08/22 02:41:27;;;;;;;;;;;17.00;80.60;;;;;;5029698;28;19913;-78
2022/08/22 02:43:59;;;;;;;;;;;17.00;80.50;;;;;;5045994;28;19912;-77
2022/08/22 02:46:48;;;;;;;;;;;17.00;80.60;;;;;;5028068;28;20079;-78
2022/08/22 02:49:16;;;;;;;;;;;16.90;80.90;;;;;;5024811;28;19917;-78
2022/08/22 02:51:44;;;;;;;;;;;16.90;81.10;;;;;;5033165;28;19931;-77
2022/08/22 02:54:18;;;;;;;;;;;16.90;81.10;;;;;;5049396;28;19920;-78
2022/08/22 02:57:03;;;;;;;;;;;16.80;81.00;;;;;;5032682;28;19917;-78
2022/08/22 02:59:31;;;;;;;;;;;16.80;81.00;;;;;;5041468;28;19913;-78
2022/08/22 03:01:57;;;;;;;;;;;16.80;81.30;;;;;;5049114;28;19913;-79
2022/08/22 03:04:44;;;;;;;;;;;16.80;81.20;;;;;;5028015;28;20274;-78
2022/08/22 03:07:09;;;;;;;;;;;16.70;81.40;;;;;;5023721;28;19917;-77
2022/08/22 03:09:38;;;;;;;;;;;16.60;81.70;;;;;;5028840;28;19932;-78
2022/08/22 03:12:22;;;;;;;;;;;16.60;81.90;;;;;;5026615;28;20365;-78
2022/08/22 03:14:53;;;;;;;;;;;16.60;81.80;;;;;;5027990;28;19913;-78
2022/08/22 03:17:39;;;;;;;;;;;16.60;81.80;;;;;;5029294;28;20004;-78
2022/08/22 03:20:08;;;;;;;;;;;16.60;81.90;;;;;;5028842;28;20360;-78
2022/08/22 03:22:42;;;;;;;;;;;16.50;82.00;;;;;;5028147;28;20381;-78
2022/08/22 03:25:08;;;;;;;;;;;16.50;82.30;;;;;;5027590;28;19920;-78
2022/08/22 03:27:38;;;;;;;;;;;16.50;82.30;;;;;;5048076;28;21758;-78
2022/08/22 03:30:03;;;;;;;;;;;16.50;82.00;;;;;;5034825;28;20358;-78
2022/08/22 03:32:49;;;;;;;;;;;16.50;81.90;;;;;;5048332;28;19920;-78
2022/08/22 03:35:33;;;;;;;;;;;16.40;82.20;;;;;;5026469;28;19924;-77
2022/08/22 03:38:11;;;;;;;;;;;16.50;82.20;;;;;;5046338;28;19913;-77
2022/08/22 03:40:55;;;;;;;;;;;16.40;82.30;;;;;;5042999;28;19959;-77
2022/08/22 03:43:33;;;;;;;;;;;16.30;82.20;;;;;;5050938;28;19925;-77
2022/08/22 03:46:11;;;;;;;;;;;16.50;82.00;;;;;;5031752;28;19950;-78
2022/08/22 03:49:15;;;;;;;;;;;16.40;82.10;;;;;;5049914;28;19917;-79
2022/08/22 03:52:10;;;;;;;;;;;16.30;82.10;;;;;;4988131;28;19913;-78
2022/08/22 03:55:01;;;;;;;;;;;16.40;82.00;;;;;;4942938;28;19919;-78
2022/08/22 03:57:37;;;;;;;;;;;16.30;82.00;;;;;;5031115;28;20552;-78
2022/08/22 04:00:21;;;;;;;;;;;16.20;82.20;;;;;;5047388;28;19935;-78
2022/08/22 04:02:46;;;;;;;;;;;16.20;82.40;;;;;;5050747;28;19912;-78
2022/08/22 04:05:34;;;;;;;;;;;16.10;83.10;;;;;;5061149;28;19919;-76
2022/08/22 04:08:08;;;;;;;;;;;16.10;83.50;;;;;;5052047;28;20289;-77
2022/08/22 04:10:52;;;;;;;;;;;16.00;83.60;;;;;;5040579;28;20415;-77
2022/08/22 04:13:39;;;;;;;;;;;16.10;83.60;;;;;;5025497;28;19931;-77
2022/08/22 04:16:05;;;;;;;;;;;16.10;83.40;;;;;;5053310;28;19948;-78
2022/08/22 04:18:36;;;;;;;;;;;16.00;83.90;;;;;;5025915;28;20350;-77
2022/08/22 04:21:02;;;;;;;;;;;16.00;83.80;;;;;;5049140;28;19923;-78
2022/08/22 04:23:40;;;;;;;;;;;16.00;83.60;;;;;;5028100;28;19999;-77
2022/08/22 04:26:18;;;;;;;;;;;16.10;83.30;;;;;;5044290;28;19936;-77
2022/08/22 04:28:49;;;;;;;;;;;16.00;82.90;;;;;;5040677;28;20000;-77
2022/08/22 04:31:21;;;;;;;;;;;16.00;83.10;;;;;;5047028;28;20396;-77
2022/08/22 04:33:46;;;;;;;;;;;16.00;83.10;;;;;;5044994;28;20317;-77
2022/08/22 04:36:33;;;;;;;;;;;16.10;83.20;;;;;;5049118;28;19912;-77
2022/08/22 04:39:06;;;;;;;;;;;16.10;83.00;;;;;;5048662;28;19979;-77
2022/08/22 04:41:48;;;;;;;;;;;16.10;82.90;;;;;;5049407;28;19923;-77
2022/08/22 04:44:17;;;;;;;;;;;16.00;83.20;;;;;;5047774;28;20292;-77
2022/08/22 04:46:51;;;;;;;;;;;16.00;83.00;;;;;;5049899;28;19921;-77
2022/08/22 04:49:16;;;;;;;;;;;16.00;83.10;;;;;;5033310;28;20308;-77
2022/08/22 04:52:02;;;;;;;;;;;15.90;83.70;;;;;;5050758;28;20011;-78
2022/08/22 04:54:47;;;;;;;;;;;16.00;83.70;;;;;;5033627;28;19979;-78
2022/08/22 04:57:13;;;;;;;;;;;16.00;83.90;;;;;;5047600;28;21670;-78
2022/08/22 04:59:38;;;;;;;;;;;16.00;84.20;;;;;;5045915;28;19924;-77
2022/08/22 05:02:07;;;;;;;;;;;16.10;83.90;;;;;;5048017;28;19912;-78
2022/08/22 05:04:40;;;;;;;;;;;16.20;84.00;;;;;;5046510;28;19912;-77
2022/08/22 05:07:11;;;;;;;;;;;16.30;84.00;;;;;;5050794;28;20019;-80
2022/08/22 05:09:39;;;;;;;;;;;16.30;84.20;;;;;;5049012;28;19917;-78
2022/08/22 05:12:07;;;;;;;;;;;16.50;83.80;;;;;;5028110;28;19948;-80
2022/08/22 05:14:36;;;;;;;;;;;16.60;83.70;;;;;;5029556;28;19920;-78
2022/08/22 05:17:03;;;;;;;;;;;16.70;83.60;;;;;;5050580;28;19963;-79
2022/08/22 05:19:36;;;;;;;;;;;16.80;83.40;;;;;;5035158;28;19917;-78
2022/08/22 05:22:02;;;;;;;;;;;16.90;83.30;;;;;;5053105;28;19931;-79
2022/08/22 05:24:32;;;;;;;;;;;16.90;83.20;;;;;;5048929;28;19913;-79
2022/08/22 05:27:02;;;;;;;;;;;17.00;83.20;;;;;;5049345;28;19917;-77
2022/08/22 05:29:29;;;;;;;;;;;17.10;83.00;;;;;;5049481;28;19920;-77
2022/08/22 05:32:04;;;;;;;;;;;17.10;82.70;;;;;;5029573;28;19921;-77
2022/08/22 05:34:34;;;;;;;;;;;17.10;82.50;;;;;;5051666;28;19920;-78
2022/08/22 05:37:14;;;;;;;;;;;17.10;82.70;;;;;;5056191;28;19912;-78
2022/08/22 05:39:45;;;;;;;;;;;17.10;82.90;;;;;;5029305;28;19920;-77
2022/08/22 05:42:23;;;;;;;;;;;17.20;82.70;;;;;;5052705;28;19944;-78
2022/08/22 05:44:48;;;;;;;;;;;17.30;82.80;;;;;;5034263;28;19913;-79
2022/08/22 05:47:22;;;;;;;;;;;17.40;82.60;;;;;;5028563;28;19947;-78
2022/08/22 05:49:57;;;;;;;;;;;17.50;82.00;;;;;;5050912;28;19912;-77
2022/08/22 05:52:43;;;;;;;;;;;17.50;81.90;;;;;;5053764;28;20579;-81
2022/08/22 05:55:23;;;;;;;;;;;17.60;81.70;;;;;;5035895;28;19919;-82
2022/08/22 05:57:53;;;;;;;;;;;17.60;81.50;;;;;;5053176;28;19920;-82
2022/08/22 06:00:20;;;;;;;;;;;17.70;81.20;;;;;;5055427;28;19909;-82
2022/08/22 06:03:03;;;;;;;;;;;17.80;80.80;;;;;;5047127;28;20328;-83
2022/08/22 06:05:30;;;;;;;;;;;18.00;80.40;;;;;;5031917;28;20403;-81
2022/08/22 06:08:01;;;;;;;;;;;18.10;80.00;;;;;;5031091;28;19983;-83
2022/08/22 06:10:36;;;;;;;;;;;18.10;79.70;;;;;;5022879;28;20369;-82
2022/08/22 06:13:02;;;;;;;;;;;18.20;79.30;;;;;;5030979;28;19917;-82
2022/08/22 06:15:46;;;;;;;;;;;18.20;79.20;;;;;;5024225;28;20003;-83
2022/08/22 06:18:14;;;;;;;;;;;18.30;79.10;;;;;;5031712;28;20286;-83
2022/08/22 06:20:52;;;;;;;;;;;18.40;79.30;;;;;;5047311;28;19921;-83
2022/08/22 06:23:26;;;;;;;;;;;18.50;79.20;;;;;;5029446;28;20388;-86
2022/08/22 06:25:53;;;;;;;;;;;18.60;79.30;;;;;;5043836;28;19924;-83
2022/08/22 06:28:22;;;;;;;;;;;18.70;78.80;;;;;;5041637;28;19917;-83
2022/08/22 06:30:49;;;;;;;;;;;18.70;78.40;;;;;;5028903;28;19920;-84
2022/08/22 06:33:23;;;;;;;;;;;18.90;78.20;;;;;;5041970;28;19919;-83
2022/08/22 06:38:51;;;;;;;;;;;19.00;78.30;;;;;;5042921;28;20041;-83
2022/08/22 06:41:20;;;;;;;;;;;19.00;78.50;;;;;;5051254;28;19921;-83
2022/08/22 06:43:48;;;;;;;;;;;19.10;78.50;;;;;;5061258;28;19917;-82
2022/08/22 06:46:15;;;;;;;;;;;19.10;78.40;;;;;;5064160;28;19917;-84
2022/08/22 06:48:42;;;;;;;;;;;19.20;78.10;;;;;;5041866;28;19966;-85
2022/08/22 06:51:09;;;;;;;;;;;19.10;78.40;;;;;;5026022;28;19917;-82
2022/08/22 06:53:37;;;;;;;;;;;19.10;78.60;;;;;;5035810;28;20042;-83
2022/08/22 06:56:04;;;;;;;;;;;19.10;78.40;;;;;;5053868;28;19916;-84
2022/08/22 06:58:33;;;;;;;;;;;19.00;78.40;;;;;;5033147;28;19920;-83
2022/08/22 07:01:01;;;;;;;;;;;19.00;79.00;;;;;;5055292;28;19909;-82
2022/08/22 07:03:33;;;;;;;;;;;18.90;79.40;;;;;;5040462;28;19913;-83
2022/08/22 07:05:59;;;;;;;;;;;19.00;79.60;;;;;;5034794;28;19924;-81
2022/08/22 07:08:25;;;;;;;;;;;19.10;78.70;;;;;;5069705;28;19913;-81
2022/08/22 07:10:54;;;;;;;;;;;19.20;78.70;;;;;;5073008;28;19921;-81
2022/08/22 07:13:20;;;;;;;;;;;19.30;78.40;;;;;;5046221;28;19912;-81
2022/08/22 07:15:52;;;;;;;;;;;19.30;78.50;;;;;;5057931;28;19913;-82
2022/08/22 07:18:19;;;;;;;;;;;19.30;78.00;;;;;;5050840;28;20421;-82
2022/08/22 07:20:53;;;;;;;;;;;19.40;77.70;;;;;;5036636;28;19923;-81
2022/08/22 07:23:30;;;;;;;;;;;19.60;77.10;;;;;;5049232;28;20377;-82
2022/08/22 07:26:08;;;;;;;;;;;19.70;76.40;;;;;;5033918;28;19955;-84
2022/08/22 07:28:39;;;;;;;;;;;19.80;76.20;;;;;;5049034;28;19951;-83
2022/08/22 07:31:16;;;;;;;;;;;19.80;76.00;;;;;;5024684;28;20006;-84
2022/08/22 07:33:50;;;;;;;;;;;19.80;76.10;;;;;;5046957;28;19967;-81
2022/08/22 07:36:16;;;;;;;;;;;19.90;75.30;;;;;;5047704;28;19920;-85
2022/08/22 07:38:45;;;;;;;;;;;20.10;75.20;;;;;;5028513;28;19921;-84
2022/08/22 07:41:18;;;;;;;;;;;20.10;75.10;;;;;;5047047;28;20689;-83
2022/08/22 07:43:50;;;;;;;;;;;20.40;73.90;;;;;;5046301;28;19959;-83
2022/08/22 07:46:22;;;;;;;;;;;20.30;74.40;;;;;;5057712;28;19913;-82
2022/08/22 07:48:57;;;;;;;;;;;20.40;75.00;;;;;;5054605;28;19959;-84
2022/08/22 07:51:42;;;;;;;;;;;20.40;74.80;;;;;;5032392;28;20293;-84
2022/08/22 07:54:10;;;;;;;;;;;20.30;74.00;;;;;;5050155;28;19920;-84
2022/08/22 07:56:38;;;;;;;;;;;20.30;73.90;;;;;;5048743;28;20338;-85
2022/08/22 07:59:06;;;;;;;;;;;20.30;73.10;;;;;;5027140;28;19908;-84
2022/08/22 08:01:32;;;;;;;;;;;20.50;73.00;;;;;;5047808;28;19913;-84
2022/08/22 08:04:03;;;;;;;;;;;20.60;72.80;;;;;;5060154;28;19919;-84
2022/08/22 08:06:30;;;;;;;;;;;20.90;70.60;;;;;;5049035;28;19928;-84
2022/08/22 08:08:57;;;;;;;;;;;21.00;70.50;;;;;;5046350;28;19913;-84
2022/08/22 08:11:24;;;;;;;;;;;21.10;70.40;;;;;;5030006;28;19908;-84
2022/08/22 08:13:53;;;;;;;;;;;21.20;69.80;;;;;;5056494;28;19944;-84
2022/08/22 08:16:20;;;;;;;;;;;21.00;69.50;;;;;;5033328;28;19972;-84
2022/08/22 08:18:47;;;;;;;;;;;21.10;70.10;;;;;;5069128;28;20293;-86
2022/08/22 08:21:24;;;;;;;;;;;21.10;69.50;;;;;;5035154;28;20748;-87
2022/08/22 08:23:51;;;;;;;;;;;21.10;69.50;;;;;;5031670;28;19912;-88
2022/08/22 08:26:20;;;;;;;;;;;21.20;68.80;;;;;;5044074;28;19933;-82
2022/08/22 08:28:50;;;;;;;;;;;21.20;69.10;;;;;;5030314;28;19908;-89
2022/08/22 08:31:24;;;;;;;;;;;21.10;68.60;;;;;;5036102;28;19996;-90
2022/08/22 08:34:08;;;;;;;;;;;21.10;69.10;;;;;;5034295;28;20052;-91
2022/08/22 08:36:35;;;;;;;;;;;21.10;69.50;;;;;;5040043;23;19908;-77
2022/08/22 08:39:09;;;;;;;;;;;21.10;68.40;;;;;;5058840;28;20407;-75
2022/08/22 08:41:37;;;;;;;;;;;21.20;68.20;;;;;;5050454;28;19975;-86
2022/08/22 08:44:21;;;;;;;;;;;21.20;68.60;;;;;;5043736;28;19913;-85
2022/08/22 08:46:56;;;;;;;;;;;21.50;67.30;;;;;;5051422;28;19917;-83
2022/08/22 08:49:34;;;;;;;;;;;21.40;68.10;;;;;;5035912;28;19915;-82
2022/08/22 08:52:23;;;;;;;;;;;21.30;69.40;;;;;;5034149;28;19913;-81
2022/08/22 08:54:54;;;;;;;;;;;21.40;70.00;;;;;;5043567;28;19913;-83
2022/08/22 08:57:37;;;;;;;;;;;21.40;70.10;;;;;;5056859;28;19913;-82
2022/08/22 09:00:13;;;;;;;;;;;21.50;69.00;;;;;;5058883;28;19913;-83
2022/08/22 09:02:38;;;;;;;;;;;21.70;67.80;;;;;;5056348;28;20007;-84
2022/08/22 09:05:04;;;;;;;;;;;21.80;65.60;;;;;;5058479;28;19952;-84
2022/08/22 09:07:32;;;;;;;;;;;21.80;64.70;;;;;;5053671;28;20519;-84
2022/08/22 09:10:13;;;;;;;;;;;22.00;65.10;;;;;;5053040;28;19946;-82
2022/08/22 09:12:41;;;;;;;;;;;22.10;63.70;;;;;;5063090;28;20437;-82
2022/08/22 09:15:07;;;;;;;;;;;22.40;63.70;;;;;;5048987;28;19917;-82
2022/08/22 09:17:41;;;;;;;;;;;22.20;64.70;;;;;;5051201;28;19995;-83
2022/08/22 09:20:25;;;;;;;;;;;22.30;64.00;;;;;;5047502;28;19943;-82
2022/08/22 09:23:11;;;;;;;;;;;22.50;62.20;;;;;;5068190;28;19966;-82
2022/08/22 09:25:47;;;;;;;;;;;22.50;63.10;;;;;;5055846;28;19993;-84
2022/08/22 09:28:17;;;;;;;;;;;22.80;61.60;;;;;;5072831;28;19921;-85
2022/08/22 09:30:50;;;;;;;;;;;22.80;62.00;;;;;;5078205;28;19956;-84
2022/08/22 09:33:18;;;;;;;;;;;22.80;59.10;;;;;;5073225;28;19927;-84
2022/08/22 09:35:54;;;;;;;;;;;22.70;57.50;;;;;;5075826;28;19966;-84
2022/08/22 09:38:23;;;;;;;;;;;22.60;59.20;;;;;;5056156;28;19951;-83
2022/08/22 09:41:05;;;;;;;;;;;22.70;58.80;;;;;;5057395;28;20387;-85
2022/08/22 09:43:50;;;;;;;;;;;22.70;59.40;;;;;;5057406;28;19912;-85
2022/08/22 09:46:19;;;;;;;;;;;22.60;60.20;;;;;;5056125;28;20037;-85
2022/08/22 09:48:45;;;;;;;;;;;22.60;60.30;;;;;;5056087;28;19955;-83
2022/08/22 09:51:16;;;;;;;;;;;22.70;57.80;;;;;;5055068;28;19912;-84
2022/08/22 09:54:01;;;;;;;;;;;22.70;59.20;;;;;;5052894;28;20338;-85
2022/08/22 09:56:35;;;;;;;;;;;22.70;59.60;;;;;;5052366;28;19968;-83
2022/08/22 09:59:00;;;;;;;;;;;22.70;60.20;;;;;;5048741;28;19912;-83
2022/08/22 10:01:37;;;;;;;;;;;22.70;58.80;;;;;;5045668;28;19943;-83
2022/08/22 10:04:06;;;;;;;;;;;22.90;58.10;;;;;;5049286;28;19939;-81
2022/08/22 10:06:54;;;;;;;;;;;23.10;56.20;;;;;;5049544;28;19931;-84
2022/08/22 10:09:31;;;;;;;;;;;23.40;55.30;;;;;;5054267;28;19912;-84
2022/08/22 10:12:03;;;;;;;;;;;23.60;55.30;;;;;;5066786;28;19924;-82
2022/08/22 10:14:48;;;;;;;;;;;23.50;56.50;;;;;;5057939;28;19972;-81
2022/08/22 10:17:19;;;;;;;;;;;23.30;53.10;;;;;;5055464;28;19999;-82
2022/08/22 10:19:46;;;;;;;;;;;23.40;52.50;;;;;;5053904;28;19972;-82
2022/08/22 10:22:14;;;;;;;;;;;23.40;53.60;;;;;;5045833;28;20009;-84
2022/08/22 10:24:53;;;;;;;;;;;23.70;51.20;;;;;;5050444;28;19928;-86
2022/08/22 10:27:26;;;;;;;;;;;23.50;52.90;;;;;;5053961;28;19966;-83
2022/08/22 10:30:04;;;;;;;;;;;23.30;53.50;;;;;;5056088;28;20019;-83
2022/08/22 10:32:30;;;;;;;;;;;23.20;55.60;;;;;;5048004;28;19913;-82
2022/08/22 10:35:00;;;;;;;;;;;23.50;54.70;;;;;;5066460;28;19916;-84
2022/08/22 10:37:36;;;;;;;;;;;23.40;54.60;;;;;;5068049;28;19916;-86
2022/08/22 10:40:04;;;;;;;;;;;23.50;54.90;;;;;;5044113;28;19913;-86
2022/08/22 10:42:32;;;;;;;;;;;23.60;53.50;;;;;;5051568;28;19940;-85
2022/08/22 10:45:11;;;;;;;;;;;23.70;52.60;;;;;;5060560;28;20375;-84
2022/08/22 10:47:40;;;;;;;;;;;23.70;52.60;;;;;;5049412;28;19931;-85
2022/08/22 10:50:17;;;;;;;;;;;23.60;54.70;;;;;;5059012;28;19924;-83
2022/08/22 10:55:49;;;;;;;;;;;23.70;51.10;;;;;;5076440;28;19967;-82
2022/08/22 10:58:20;;;;;;;;;;;23.80;52.00;;;;;;5077520;28;19912;-81
2022/08/22 11:00:53;;;;;;;;;;;23.80;52.00;;;;;;5052387;28;19920;-84
2022/08/22 11:03:34;;;;;;;;;;;24.00;52.90;;;;;;5072237;28;20387;-82
2022/08/22 11:06:02;;;;;;;;;;;24.00;51.50;;;;;;5076684;28;19920;-84
2022/08/22 11:08:32;;;;;;;;;;;23.80;52.50;;;;;;5056155;28;19913;-83
2022/08/22 11:11:04;;;;;;;;;;;23.70;53.80;;;;;;5055962;28;19913;-84
2022/08/22 11:13:35;;;;;;;;;;;23.70;53.90;;;;;;5077935;28;19980;-83
2022/08/22 11:16:19;;;;;;;;;;;23.80;51.80;;;;;;5059269;28;19913;-84
2022/08/22 11:18:54;;;;;;;;;;;24.00;53.10;;;;;;5075432;28;19938;-88
2022/08/22 11:21:33;;;;;;;;;;;24.00;52.70;;;;;;5053562;28;19917;-86
2022/08/22 11:24:05;;;;;;;;;;;24.00;51.30;;;;;;5081503;28;19917;-83
2022/08/22 11:26:36;;;;;;;;;;;24.00;51.60;;;;;;5066618;28;19962;-81
2022/08/22 11:29:11;;;;;;;;;;;24.30;51.40;;;;;;5047349;28;19967;-83
2022/08/22 11:31:37;;;;;;;;;;;24.30;50.50;;;;;;5050220;28;20334;-83
2022/08/22 11:34:08;;;;;;;;;;;24.30;50.60;;;;;;5047242;28;19959;-83
2022/08/22 11:36:39;;;;;;;;;;;24.30;51.40;;;;;;5060980;28;19913;-83
2022/08/22 11:39:08;;;;;;;;;;;24.20;51.00;;;;;;5065908;28;19995;-83
2022/08/22 11:41:34;;;;;;;;;;;24.60;52.10;;;;;;5067942;28;19984;-84
2022/08/22 11:44:18;;;;;;;;;;;24.70;49.60;;;;;;5059408;28;20034;-84
2022/08/22 11:46:46;;;;;;;;;;;25.00;49.90;;;;;;5057299;28;20710;-83
2022/08/22 11:49:23;;;;;;;;;;;25.10;49.20;;;;;;5072331;28;19913;-83
2022/08/22 11:51:56;;;;;;;;;;;24.80;49.50;;;;;;5058240;28;19920;-82
2022/08/22 11:54:36;;;;;;;;;;;24.80;49.10;;;;;;5070340;28;19912;-83
2022/08/22 11:57:05;;;;;;;;;;;24.80;50.80;;;;;;5065255;28;19978;-84
2022/08/22 11:59:40;;;;;;;;;;;25.00;51.60;;;;;;5055497;28;19999;-83
2022/08/22 12:02:13;;;;;;;;;;;25.00;49.90;;;;;;5069456;28;20013;-83
2022/08/22 12:04:40;;;;;;;;;;;25.00;49.00;;;;;;5073572;28;19965;-83
2022/08/22 12:07:25;;;;;;;;;;;24.90;49.20;;;;;;5048249;28;19994;-83
2022/08/22 12:10:09;;;;;;;;;;;25.10;48.80;;;;;;5065708;28;19947;-83
2022/08/22 12:12:36;;;;;;;;;;;25.50;49.90;;;;;;5069764;28;19981;-83
2022/08/22 12:15:07;;;;;;;;;;;25.50;47.80;;;;;;5051293;28;19912;-84
2022/08/22 12:17:44;;;;;;;;;;;25.60;47.50;;;;;;5040279;28;19917;-82
2022/08/22 12:20:29;;;;;;;;;;;25.60;47.80;;;;;;5049512;28;19912;-83
2022/08/22 12:22:54;;;;;;;;;;;25.60;47.50;;;;;;5052167;28;19919;-83
2022/08/22 12:25:39;;;;;;;;;;;25.60;47.60;;;;;;5056461;28;19952;-83
2022/08/22 12:28:15;;;;;;;;;;;25.70;48.70;;;;;;5055220;28;19972;-83
2022/08/22 12:30:55;;;;;;;;;;;26.00;48.10;;;;;;5049142;28;19920;-84
2022/08/22 12:33:27;;;;;;;;;;;26.10;47.00;;;;;;5062938;28;20287;-84
2022/08/22 12:36:00;;;;;;;;;;;26.10;47.30;;;;;;5046053;28;19924;-84
2022/08/22 12:39:01;;;;;;;;;;;26.10;47.40;;;;;;5044047;28;19920;-84
2022/08/22 12:41:46;;;;;;;;;;;26.20;47.90;;;;;;4999227;28;19956;-83
2022/08/22 12:44:30;;;;;;;;;;;26.30;46.40;;;;;;5062299;28;19913;-84
2022/08/22 12:47:05;;;;;;;;;;;26.30;45.50;;;;;;5054612;28;19927;-84
2022/08/22 12:49:35;;;;;;;;;;;26.40;45.70;;;;;;5045409;28;19913;-84
2022/08/22 12:52:20;;;;;;;;;;;26.50;46.30;;;;;;5054000;28;19924;-84
2022/08/22 12:54:48;;;;;;;;;;;26.80;46.60;;;;;;5050765;28;20018;-81
2022/08/22 12:57:14;;;;;;;;;;;26.60;45.60;;;;;;5072759;22;19917;-80
2022/08/22 12:59:43;;;;;;;;;;;26.80;45.70;;;;;;5065366;28;19916;-80
2022/08/22 13:02:23;;;;;;;;;;;27.10;43.60;;;;;;5066551;28;19916;-79
2022/08/22 13:04:52;;;;;;;;;;;27.30;43.60;;;;;;5057805;28;19909;-80
2022/08/22 13:07:17;;;;;;;;;;;27.20;43.80;;;;;;5077803;28;19963;-79
2022/08/22 13:09:47;;;;;;;;;;;27.30;43.50;;;;;;5066455;28;19916;-79
2022/08/22 13:12:19;;;;;;;;;;;27.20;44.60;;;;;;5090498;28;20305;-80
2022/08/22 13:14:46;;;;;;;;;;;27.30;43.90;;;;;;5084315;28;19912;-83
2022/08/22 13:17:15;;;;;;;;;;;27.00;44.20;;;;;;5069260;28;19974;-81
2022/08/22 13:19:50;;;;;;;;;;;27.10;43.90;;;;;;5079144;28;19923;-83
2022/08/22 13:22:18;;;;;;;;;;;27.00;43.60;;;;;;5063464;28;19909;-81
2022/08/22 13:24:48;;;;;;;;;;;27.20;43.80;;;;;;5083078;28;19917;-82
2022/08/22 13:27:18;;;;;;;;;;;27.30;43.20;;;;;;5071790;28;19923;-81
2022/08/22 13:29:47;;;;;;;;;;;27.50;42.50;;;;;;5071368;28;19919;-80
2022/08/22 13:32:35;;;;;;;;;;;27.60;43.40;;;;;;5089012;28;20359;-80
2022/08/22 13:35:01;;;;;;;;;;;27.30;43.50;;;;;;5060940;28;19947;-80
2022/08/22 13:37:38;;;;;;;;;;;27.20;43.90;;;;;;5079443;28;19912;-82
2022/08/22 13:40:06;;;;;;;;;;;27.50;42.40;;;;;;5075820;28;19912;-82
2022/08/22 13:42:35;;;;;;;;;;;27.40;43.70;;;;;;5073194;28;19958;-80
2022/08/22 13:45:03;;;;;;;;;;;27.40;42.70;;;;;;5068808;28;19912;-81
2022/08/22 13:47:31;;;;;;;;;;;27.30;43.00;;;;;;5064698;28;19924;-81
2022/08/22 13:50:05;;;;;;;;;;;27.40;44.30;;;;;;5055238;28;19912;-80
2022/08/22 13:52:40;;;;;;;;;;;27.50;42.70;;;;;;5074018;28;19916;-82
2022/08/22 13:55:21;;;;;;;;;;;27.50;42.80;;;;;;5073024;28;19912;-81
2022/08/22 13:57:49;;;;;;;;;;;27.50;42.80;;;;;;5067428;28;19920;-82
2022/08/22 14:00:18;;;;;;;;;;;27.10;43.80;;;;;;5072804;28;19912;-81
2022/08/22 14:02:58;;;;;;;;;;;27.00;43.80;;;;;;5068958;28;19921;-82
2022/08/22 14:05:29;;;;;;;;;;;27.00;44.00;;;;;;5065942;28;19920;-83
2022/08/22 14:08:14;;;;;;;;;;;27.10;43.50;;;;;;5047092;28;20387;-81
2022/08/22 14:10:59;;;;;;;;;;;27.00;44.00;;;;;;5065408;28;19916;-82
2022/08/22 14:13:45;;;;;;;;;;;27.00;44.00;;;;;;5062710;28;19938;-82
2022/08/22 14:16:25;;;;;;;;;;;27.00;43.40;;;;;;5045763;28;20038;-83
2022/08/22 14:18:53;;;;;;;;;;;27.00;44.60;;;;;;5068621;28;19951;-82
2022/08/22 14:21:26;;;;;;;;;;;27.10;43.00;;;;;;5062825;28;19920;-81
2022/08/22 14:23:54;;;;;;;;;;;27.40;43.50;;;;;;5070994;28;19908;-81
2022/08/22 14:26:27;;;;;;;;;;;27.60;42.50;;;;;;5068836;28;19940;-83
2022/08/22 14:28:56;;;;;;;;;;;27.70;42.10;;;;;;5061397;28;19913;-81
2022/08/22 14:31:23;;;;;;;;;;;27.70;41.50;;;;;;5076394;28;19935;-83
2022/08/22 14:33:51;;;;;;;;;;;27.80;41.70;;;;;;5072862;28;19921;-82
2022/08/22 14:36:21;;;;;;;;;;;27.80;41.90;;;;;;5054950;28;19923;-82
2022/08/22 14:38:51;;;;;;;;;;;27.60;42.20;;;;;;5061455;28;19912;-82
2022/08/22 14:41:31;;;;;;;;;;;27.60;43.20;;;;;;5060475;28;20431;-82
2022/08/22 14:44:06;;;;;;;;;;;27.50;42.70;;;;;;5066554;28;19918;-84
2022/08/22 14:46:43;;;;;;;;;;;27.30;43.50;;;;;;5054078;28;19942;-82
2022/08/22 14:49:19;;;;;;;;;;;27.40;43.20;;;;;;5074603;28;20313;-82
2022/08/22 14:51:49;;;;;;;;;;;27.60;41.20;;;;;;5054691;28;19995;-82
2022/08/22 14:54:16;;;;;;;;;;;27.50;42.60;;;;;;5067855;28;19912;-81
2022/08/22 14:56:43;;;;;;;;;;;27.70;43.20;;;;;;5070343;28;19912;-81
2022/08/22 14:59:12;;;;;;;;;;;27.30;42.70;;;;;;5066588;28;20290;-80
2022/08/22 15:01:53;;;;;;;;;;;27.20;44.70;;;;;;5048395;28;19936;-82